createdAt,value
2023-01-10T00:01:29.966Z,15.13
2023-01-10T00:03:57.614Z,14.14
2023-01-10T00:06:25.311Z,13.02
2023-01-10T00:08:52.981Z,12.23
2023-01-10T00:11:39.661Z,11.67
2023-01-10T00:14:07.278Z,11.18
2023-01-10T00:16:34.932Z,11.45
2023-01-10T00:19:02.549Z,13.82
2023-01-10T00:21:31.256Z,15.19
2023-01-10T00:24:13.807Z,14.18
2023-01-10T00:26:43.190Z,12.90
2023-01-10T00:29:12.487Z,12.08
2023-01-10T00:31:40.161Z,11.49
2023-01-10T00:34:08.113Z,11.61
2023-01-10T00:36:35.780Z,14.02
2023-01-10T00:39:03.785Z,15.50
2023-01-10T00:41:50.128Z,14.45
2023-01-10T00:44:17.769Z,13.05
2023-01-10T00:46:45.383Z,12.20
2023-01-10T00:49:16.440Z,11.59
2023-01-10T00:51:44.137Z,11.70
2023-01-10T00:54:11.747Z,14.00
2023-01-10T00:56:39.372Z,15.37
2023-01-10T00:59:07.105Z,14.34
2023-01-10T01:01:34.818Z,13.09
2023-01-10T01:04:02.584Z,12.20
2023-01-10T01:06:30.260Z,11.55
2023-01-10T01:08:57.885Z,11.77
2023-01-10T01:11:25.478Z,14.06
2023-01-10T01:13:53.098Z,15.28
2023-01-10T01:16:20.768Z,14.21
2023-01-10T01:18:48.383Z,13.00
2023-01-10T01:21:16.044Z,12.12
2023-01-10T01:23:43.704Z,11.96
2023-01-10T01:26:11.335Z,13.99
2023-01-10T01:28:38.967Z,15.26
2023-01-10T01:31:06.689Z,14.26
2023-01-10T01:33:34.513Z,13.06
2023-01-10T01:36:02.143Z,12.18
2023-01-10T01:38:29.760Z,12.00
2023-01-10T01:40:57.391Z,14.03
2023-01-10T01:43:25.029Z,15.41
2023-01-10T01:45:52.728Z,14.41
2023-01-10T01:48:21.017Z,13.15
2023-01-10T01:50:48.613Z,12.20
2023-01-10T01:53:16.244Z,11.51
2023-01-10T01:55:43.911Z,11.48
2023-01-10T01:58:11.557Z,13.58
2023-01-10T02:00:39.192Z,15.08
2023-01-10T02:03:07.190Z,14.07
2023-01-10T02:05:34.831Z,12.77
2023-01-10T02:08:02.542Z,11.78
2023-01-10T02:10:30.177Z,11.56
2023-01-10T02:12:57.788Z,13.49
2023-01-10T02:15:25.407Z,15.24
2023-01-10T02:17:53.031Z,15.11
2023-01-10T02:20:20.655Z,13.46
2023-01-10T02:22:48.278Z,12.19
2023-01-10T02:25:16.248Z,11.45
2023-01-10T02:27:43.842Z,13.04
2023-01-10T02:30:11.431Z,14.96
2023-01-10T02:32:47.960Z,14.60
2023-01-10T02:35:21.242Z,12.87
2023-01-10T02:37:48.862Z,11.64
2023-01-10T02:40:16.462Z,11.82
2023-01-10T02:42:44.116Z,13.88
2023-01-10T02:45:11.735Z,14.99
2023-01-10T02:47:39.354Z,13.78
2023-01-10T02:50:06.965Z,12.26
2023-01-10T02:52:34.585Z,11.22
2023-01-10T02:55:02.290Z,11.08
2023-01-10T02:57:29.963Z,13.12
2023-01-10T02:59:57.569Z,14.39
2023-01-10T03:02:25.205Z,13.34
2023-01-10T03:04:53.742Z,11.87
2023-01-10T03:07:21.385Z,12.02
2023-01-10T03:09:49.024Z,14.21
2023-01-10T03:12:16.666Z,14.90
2023-01-10T03:14:44.319Z,13.62
2023-01-10T03:17:12.008Z,12.30
2023-01-10T03:19:39.607Z,11.27
2023-01-10T03:22:07.231Z,12.29
2023-01-10T03:24:34.842Z,14.69
2023-01-10T03:27:03.104Z,15.35
2023-01-10T03:29:31.206Z,13.87
2023-01-10T03:31:58.832Z,12.35
2023-01-10T03:34:26.461Z,11.35
2023-01-10T03:36:54.138Z,12.50
2023-01-10T03:39:21.763Z,14.66
2023-01-10T03:41:49.371Z,13.91
2023-01-10T03:44:35.920Z,12.54
2023-01-10T03:47:03.548Z,11.30
2023-01-10T03:49:31.201Z,11.14
2023-01-10T03:51:59.088Z,13.21
2023-01-10T03:54:26.703Z,14.15
2023-01-10T03:56:54.326Z,12.93
2023-01-10T03:59:21.933Z,11.57
2023-01-10T04:01:49.643Z,11.29
2023-01-10T04:04:17.447Z,13.25
2023-01-10T04:06:45.321Z,14.30
2023-01-10T04:09:12.936Z,13.12
2023-01-10T04:11:40.560Z,11.70
2023-01-10T04:14:08.201Z,11.39
2023-01-10T04:16:35.991Z,13.36
2023-01-10T04:19:03.692Z,14.57
2023-01-10T04:21:31.311Z,13.32
2023-01-10T04:23:58.927Z,11.88
2023-01-10T04:26:26.526Z,11.33
2023-01-10T04:28:54.145Z,13.26
2023-01-10T04:31:23.062Z,14.66
2023-01-10T04:33:50.734Z,13.73
2023-01-10T04:36:18.380Z,12.19
2023-01-10T04:38:45.992Z,11.19
2023-01-10T04:41:13.593Z,12.33
2023-01-10T04:43:41.257Z,13.95
2023-01-10T04:46:09.046Z,13.52
2023-01-10T04:48:37.500Z,12.09
2023-01-10T04:51:05.102Z,11.43
2023-01-10T04:53:32.725Z,13.14
2023-01-10T04:56:00.369Z,13.96
2023-01-10T04:58:27.953Z,12.71
2023-01-10T05:00:55.601Z,11.28
2023-01-10T05:03:23.263Z,11.47
2023-01-10T05:05:50.868Z,13.40
2023-01-10T05:08:18.480Z,14.52
2023-01-10T05:10:46.077Z,13.18
2023-01-10T05:13:13.684Z,11.72
2023-01-10T05:15:41.305Z,10.75
2023-01-10T05:18:08.899Z,11.37
2023-01-10T05:20:36.517Z,13.65
2023-01-10T05:23:04.173Z,14.73
2023-01-10T05:25:31.787Z,13.45
2023-01-10T05:27:59.405Z,12.06
2023-01-10T05:30:27.045Z,11.29
2023-01-10T05:32:54.695Z,12.79
2023-01-10T05:35:22.304Z,14.53
2023-01-10T05:37:49.916Z,14.05
2023-01-10T05:40:17.536Z,12.48
2023-01-10T05:42:45.164Z,11.38
2023-01-10T05:45:12.865Z,11.17
2023-01-10T05:47:40.501Z,13.30
2023-01-10T05:50:08.105Z,14.53
2023-01-10T05:52:35.731Z,13.31
2023-01-10T05:55:03.377Z,11.91
2023-01-10T05:57:30.987Z,11.62
2023-01-10T05:59:58.657Z,13.53
2023-01-10T06:02:26.811Z,13.87
2023-01-10T06:04:55.905Z,12.47
2023-01-10T06:07:23.572Z,11.24
2023-01-10T06:09:51.637Z,11.99
2023-01-10T06:12:19.347Z,14.04
2023-01-10T06:14:47.029Z,14.68
2023-01-10T06:17:14.708Z,13.29
2023-01-10T06:19:42.344Z,11.80
2023-01-10T06:22:09.991Z,11.17
2023-01-10T06:24:37.708Z,12.84
2023-01-10T06:27:05.978Z,13.90
2023-01-10T06:29:33.641Z,12.84
2023-01-10T06:32:01.266Z,11.42
2023-01-10T06:34:28.879Z,11.39
2023-01-10T06:36:56.578Z,13.25
2023-01-10T06:39:24.277Z,13.46
2023-01-10T06:41:51.906Z,12.19
2023-01-10T06:44:19.543Z,10.95
2023-01-10T06:46:47.165Z,10.99
2023-01-10T06:49:14.808Z,12.80
2023-01-10T06:51:42.862Z,13.47
2023-01-10T06:54:10.497Z,12.33
2023-01-10T06:56:38.149Z,11.11
2023-01-10T06:59:08.359Z,11.25
2023-01-10T07:01:36.397Z,13.13
2023-01-10T07:04:04.070Z,13.95
2023-01-10T07:06:32.667Z,12.62
2023-01-10T07:09:00.301Z,11.24
2023-01-10T07:11:27.917Z,11.52
2023-01-10T07:13:55.591Z,13.51
2023-01-10T07:16:23.391Z,13.65
2023-01-10T07:18:51.121Z,12.33
2023-01-10T07:21:20.087Z,11.13
2023-01-10T07:23:47.704Z,10.26
2023-01-10T07:26:17.950Z,10.79
2023-01-10T07:28:45.970Z,13.09
2023-01-10T07:31:13.851Z,13.88
2023-01-10T07:33:41.539Z,12.75
2023-01-10T07:36:09.193Z,11.27
2023-01-10T07:38:36.857Z,11.15
2023-01-10T07:41:04.480Z,12.54
2023-01-10T07:43:32.098Z,12.35
2023-01-10T07:46:00.010Z,11.05
2023-01-10T07:48:27.654Z,11.23
2023-01-10T07:50:55.273Z,12.68
2023-01-10T07:53:22.895Z,11.62
2023-01-10T07:55:50.794Z,10.88
2023-01-10T07:58:18.403Z,12.31
2023-01-10T08:00:50.971Z,12.48
2023-01-10T08:03:21.464Z,11.18
2023-01-10T08:05:49.148Z,11.04
2023-01-10T08:08:17.622Z,12.67
2023-01-10T08:10:45.271Z,12.32
2023-01-10T08:13:18.757Z,10.88
2023-01-10T08:15:47.553Z,10.26
2023-01-10T08:18:15.289Z,11.95
2023-01-10T08:20:42.936Z,12.59
2023-01-10T08:23:10.597Z,11.31
2023-01-10T08:25:39.580Z,10.91
2023-01-10T08:28:07.334Z,12.49
2023-01-10T08:30:34.997Z,12.78
2023-01-10T08:33:02.612Z,11.13
2023-01-10T08:35:30.268Z,10.71
2023-01-10T08:37:58.156Z,12.21
2023-01-10T08:40:25.766Z,12.26
2023-01-10T08:42:54.611Z,10.83
2023-01-10T08:45:22.220Z,10.70
2023-01-10T08:47:49.839Z,11.99
2023-01-10T08:50:17.447Z,11.92
2023-01-10T08:52:45.067Z,10.54
2023-01-10T08:55:12.656Z,11.17
2023-01-10T08:57:40.272Z,12.73
2023-01-10T09:00:07.964Z,12.83
2023-01-10T09:02:35.702Z,11.34
2023-01-10T09:05:04.819Z,10.34
2023-01-10T09:07:32.619Z,11.83
2023-01-10T09:10:00.228Z,12.80
2023-01-10T09:12:46.605Z,11.55
2023-01-10T09:15:14.276Z,10.19
2023-01-10T09:17:42.168Z,11.39
2023-01-10T09:20:10.504Z,12.98
2023-01-10T09:22:38.130Z,12.42
2023-01-10T09:25:05.794Z,10.96
2023-01-10T09:27:33.504Z,10.10
2023-01-10T09:30:01.188Z,11.59
2023-01-10T09:32:28.893Z,13.13
2023-01-10T09:34:56.515Z,12.48
2023-01-10T09:37:24.155Z,10.89
2023-01-10T09:39:53.045Z,10.02
2023-01-10T09:42:20.788Z,11.36
2023-01-10T09:44:48.390Z,12.29
2023-01-10T09:47:22.540Z,11.24
2023-01-10T09:49:50.891Z,10.18
2023-01-10T09:52:18.506Z,11.68
2023-01-10T09:54:46.121Z,12.90
2023-01-10T09:57:13.724Z,11.87
2023-01-10T09:59:41.722Z,10.45
2023-01-10T10:02:09.459Z,10.53
2023-01-10T10:04:37.170Z,12.06
2023-01-10T10:07:04.845Z,11.40
2023-01-10T10:09:32.526Z,10.23
2023-01-10T10:12:00.155Z,11.46
2023-01-10T10:14:27.793Z,12.29
2023-01-10T10:16:55.413Z,11.10
2023-01-10T10:19:23.022Z,10.11
2023-01-10T10:21:50.636Z,11.32
2023-01-10T10:24:18.263Z,12.34
2023-01-10T10:26:45.844Z,11.19
2023-01-10T10:29:13.490Z,10.05
2023-01-10T10:31:41.161Z,10.83
2023-01-10T10:34:08.809Z,12.81
2023-01-10T10:36:36.444Z,13.28
2023-01-10T10:39:04.106Z,11.90
2023-01-10T10:41:31.778Z,10.51
2023-01-10T10:44:04.155Z,10.18
2023-01-10T10:46:31.777Z,12.20
2023-01-10T10:48:59.403Z,13.45
2023-01-10T10:51:27.083Z,12.36
2023-01-10T10:53:54.700Z,10.94
2023-01-10T10:56:22.374Z,10.05
2023-01-10T10:58:50.117Z,11.57
2023-01-10T11:01:17.881Z,13.37
2023-01-10T11:03:45.634Z,12.50
2023-01-10T11:06:13.261Z,11.06
2023-01-10T11:08:43.839Z,10.00
2023-01-10T11:11:11.523Z,9.95
2023-01-10T11:13:39.147Z,12.21
2023-01-10T11:16:06.884Z,13.47
2023-01-10T11:18:34.572Z,12.17
2023-01-10T11:21:02.294Z,10.87
2023-01-10T11:23:29.922Z,9.96
2023-01-10T11:25:57.539Z,9.89
2023-01-10T11:28:25.176Z,12.05
2023-01-10T11:30:52.824Z,13.50
2023-01-10T11:33:20.445Z,12.41
2023-01-10T11:35:48.058Z,11.05
2023-01-10T11:38:15.659Z,10.08
2023-01-10T11:40:43.282Z,10.87
2023-01-10T11:43:10.897Z,13.02
2023-01-10T11:45:38.705Z,13.52
2023-01-10T11:48:06.343Z,12.26
2023-01-10T11:50:33.976Z,10.90
2023-01-10T11:53:01.620Z,10.02
2023-01-10T11:55:29.293Z,10.00
2023-01-10T11:57:56.977Z,12.39
2023-01-10T12:00:24.621Z,13.66
2023-01-10T12:02:52.780Z,12.59
2023-01-10T12:05:20.516Z,11.16
2023-01-10T12:07:48.159Z,10.20
2023-01-10T12:10:15.809Z,11.41
2023-01-10T12:12:43.444Z,13.46
2023-01-10T12:15:11.078Z,13.75
2023-01-10T12:17:38.712Z,12.22
2023-01-10T12:20:06.620Z,10.88
2023-01-10T12:22:34.287Z,10.23
2023-01-10T12:25:01.917Z,11.91
2023-01-10T12:27:29.622Z,13.78
2023-01-10T12:29:57.253Z,13.29
2023-01-10T12:32:24.883Z,11.86
2023-01-10T12:34:52.511Z,10.73
2023-01-10T12:37:20.245Z,10.30
2023-01-10T12:39:47.878Z,12.29
2023-01-10T12:42:34.201Z,13.83
2023-01-10T12:45:01.831Z,12.61
2023-01-10T12:47:30.370Z,11.28
2023-01-10T12:49:57.999Z,10.31
2023-01-10T12:52:25.656Z,10.26
2023-01-10T12:54:53.272Z,12.62
2023-01-10T12:57:20.876Z,14.02
2023-01-10T12:59:48.507Z,12.94
2023-01-10T13:02:16.265Z,11.42
2023-01-10T13:04:44.155Z,10.41
2023-01-10T13:07:11.804Z,10.29
2023-01-10T13:09:39.434Z,12.49
2023-01-10T13:12:07.063Z,13.88
2023-01-10T13:14:34.741Z,12.79
2023-01-10T13:17:02.389Z,11.42
2023-01-10T13:19:30.046Z,10.35
2023-01-10T13:21:57.667Z,10.26
2023-01-10T13:24:26.520Z,12.51
2023-01-10T13:26:54.215Z,13.82
2023-01-10T13:29:21.882Z,12.73
2023-01-10T13:31:51.177Z,11.39
2023-01-10T13:34:18.823Z,10.38
2023-01-10T13:36:46.840Z,10.20
2023-01-10T13:39:15.177Z,12.35
2023-01-10T13:42:01.818Z,13.75
2023-01-10T13:44:29.442Z,12.45
2023-01-10T13:46:57.096Z,11.13
2023-01-10T13:49:24.797Z,10.21
2023-01-10T13:51:52.397Z,11.10
2023-01-10T13:54:20.010Z,13.37
2023-01-10T13:56:47.627Z,13.58
2023-01-10T13:59:18.338Z,12.06
2023-01-10T14:02:04.711Z,10.82
2023-01-10T14:04:32.478Z,10.45
2023-01-10T14:07:00.141Z,12.56
2023-01-10T14:09:28.971Z,13.79
2023-01-10T14:11:56.566Z,12.50
2023-01-10T14:14:24.327Z,11.16
2023-01-10T14:16:51.961Z,10.20
2023-01-10T14:19:19.651Z,9.97
2023-01-10T14:21:48.600Z,12.09
2023-01-10T14:24:16.221Z,13.43
2023-01-10T14:26:44.334Z,12.53
2023-01-10T14:29:15.822Z,11.09
2023-01-10T14:31:43.439Z,10.61
2023-01-10T14:34:11.071Z,12.41
2023-01-10T14:36:38.740Z,13.34
2023-01-10T14:39:06.418Z,12.12
2023-01-10T14:41:34.021Z,10.72
2023-01-10T14:44:01.655Z,10.69
2023-01-10T14:46:29.347Z,12.45
2023-01-10T14:49:01.014Z,12.83
2023-01-10T14:51:29.055Z,11.52
2023-01-10T14:53:57.637Z,10.29
2023-01-10T14:56:25.381Z,10.14
2023-01-10T14:58:53.022Z,12.28
2023-01-10T15:01:20.793Z,13.33
2023-01-10T15:03:49.007Z,12.29
2023-01-10T15:06:16.888Z,10.97
2023-01-10T15:08:44.565Z,10.01
2023-01-10T15:11:12.898Z,10.06
2023-01-10T15:13:40.540Z,12.33
2023-01-10T15:16:08.282Z,13.58
2023-01-10T15:18:36.418Z,12.55
2023-01-10T15:21:04.172Z,11.17
2023-01-10T15:23:31.804Z,10.11
2023-01-10T15:25:59.467Z,9.44
2023-01-10T15:28:27.741Z,10.63
2023-01-10T15:30:56.620Z,12.92
2023-01-10T15:33:24.244Z,13.57
2023-01-10T15:35:51.932Z,12.18
2023-01-10T15:38:21.247Z,10.84
2023-01-10T15:40:48.878Z,10.03
2023-01-10T15:43:16.517Z,11.53
2023-01-10T15:45:45.055Z,13.33
2023-01-10T15:48:12.695Z,12.84
2023-01-10T15:50:40.355Z,11.44
2023-01-10T15:53:07.976Z,10.32
2023-01-10T15:55:36.135Z,9.71
2023-01-10T15:58:03.773Z,11.27
2023-01-10T16:00:31.601Z,12.82
2023-01-10T16:02:59.406Z,11.97
2023-01-10T16:05:27.147Z,10.71
2023-01-10T16:07:54.928Z,9.82
2023-01-10T16:10:22.598Z,11.18
2023-01-10T16:13:09.129Z,13.03
2023-01-10T16:15:37.891Z,12.25
2023-01-10T16:18:05.606Z,10.90
2023-01-10T16:20:33.290Z,9.86
2023-01-10T16:23:01.259Z,9.52
2023-01-10T16:25:28.886Z,11.62
2023-01-10T16:27:56.510Z,13.13
2023-01-10T16:30:24.170Z,11.98
2023-01-10T16:32:51.898Z,10.68
2023-01-10T16:35:20.418Z,9.68
2023-01-10T16:37:48.121Z,8.97
2023-01-10T16:40:15.749Z,9.85
2023-01-10T16:43:02.459Z,12.27
2023-01-10T16:45:30.205Z,13.20
2023-01-10T16:47:57.879Z,11.89
2023-01-10T16:50:25.519Z,10.58
2023-01-10T16:52:53.179Z,9.65
2023-01-10T16:55:20.891Z,10.18
2023-01-10T16:57:49.297Z,12.63
2023-01-10T17:00:17.024Z,12.81
2023-01-10T17:02:44.691Z,11.45
2023-01-10T17:05:12.949Z,10.30
2023-01-10T17:07:41.653Z,9.45
2023-01-10T17:10:09.245Z,9.50
2023-01-10T17:12:36.860Z,11.81
2023-01-10T17:15:04.523Z,13.09
2023-01-10T17:17:32.209Z,12.01
2023-01-10T17:20:00.793Z,10.69
2023-01-10T17:22:28.819Z,9.73
2023-01-10T17:24:56.460Z,9.15
2023-01-10T17:27:24.085Z,10.66
2023-01-10T17:29:51.701Z,12.97
2023-01-10T17:32:19.334Z,12.69
2023-01-10T17:34:47.222Z,11.28
2023-01-10T17:37:14.877Z,10.17
2023-01-10T17:39:42.513Z,9.50
2023-01-10T17:42:10.243Z,11.06
2023-01-10T17:44:37.965Z,12.98
2023-01-10T17:47:05.606Z,12.20
2023-01-10T17:49:33.282Z,10.92
2023-01-10T17:52:01.168Z,9.94
2023-01-10T17:54:28.860Z,10.15
2023-01-10T17:56:56.513Z,12.52
2023-01-10T17:59:24.135Z,13.08
2023-01-10T18:01:51.933Z,11.70
2023-01-10T18:04:19.665Z,10.47
2023-01-10T18:06:47.320Z,9.62
2023-01-10T18:09:14.967Z,9.28
2023-01-10T18:11:42.593Z,11.17
2023-01-10T18:14:29.140Z,12.63
2023-01-10T18:16:56.860Z,11.68
2023-01-10T18:19:26.529Z,10.45
2023-01-10T18:21:54.137Z,9.52
2023-01-10T18:24:21.785Z,9.42
2023-01-10T18:26:49.824Z,11.68
2023-01-10T18:29:17.509Z,13.00
2023-01-10T18:31:45.141Z,11.94
2023-01-10T18:34:12.752Z,10.60
2023-01-10T18:36:41.201Z,9.65
2023-01-10T18:39:08.816Z,9.53
2023-01-10T18:41:36.828Z,11.72
2023-01-10T18:44:04.495Z,13.25
2023-01-10T18:46:32.571Z,12.20
2023-01-10T18:49:00.366Z,10.75
2023-01-10T18:51:28.071Z,9.77
2023-01-10T18:53:55.771Z,9.08
2023-01-10T18:56:23.473Z,9.17
2023-01-10T18:58:51.139Z,11.61
2023-01-10T19:01:18.909Z,13.14
2023-01-10T19:03:46.563Z,12.16
2023-01-10T19:06:16.146Z,10.83
2023-01-10T19:08:43.973Z,9.82
2023-01-10T19:11:14.895Z,9.13
2023-01-10T19:13:42.999Z,9.26
2023-01-10T19:16:10.647Z,11.63
2023-01-10T19:18:38.366Z,13.14
2023-01-10T19:21:06.392Z,12.14
2023-01-10T19:23:34.075Z,10.83
2023-01-10T19:26:01.694Z,9.87
2023-01-10T19:28:29.990Z,9.20
2023-01-10T19:31:04.523Z,9.32
2023-01-10T19:33:32.988Z,11.76
2023-01-10T19:36:00.625Z,13.19
2023-01-10T19:38:28.275Z,12.20
2023-01-10T19:40:56.697Z,10.91
2023-01-10T19:43:25.155Z,9.97
2023-01-10T19:45:53.583Z,9.32
2023-01-10T19:48:21.370Z,9.49
2023-01-10T19:50:48.987Z,11.92
2023-01-10T19:53:16.612Z,13.29
2023-01-10T19:55:44.236Z,12.25
2023-01-10T19:58:11.864Z,10.99
2023-01-10T20:00:39.474Z,10.08
2023-01-10T20:03:07.929Z,9.39
2023-01-10T20:05:36.463Z,9.42
2023-01-10T20:08:05.173Z,11.70
2023-01-10T20:10:32.779Z,13.15
2023-01-10T20:13:00.427Z,12.16
2023-01-10T20:15:28.133Z,10.88
2023-01-10T20:17:55.781Z,9.97
2023-01-10T20:20:23.778Z,9.32
2023-01-10T20:22:51.408Z,9.52
2023-01-10T20:25:19.019Z,12.05
2023-01-10T20:27:46.977Z,13.49
2023-01-10T20:30:14.629Z,12.35
2023-01-10T20:32:42.303Z,11.05
2023-01-10T20:35:11.478Z,10.11
2023-01-10T20:37:39.141Z,9.44
2023-01-10T20:40:09.258Z,9.67
2023-01-10T20:42:36.948Z,12.32
2023-01-10T20:45:04.569Z,13.48
2023-01-10T20:47:33.418Z,12.24
2023-01-10T20:50:01.057Z,10.96
2023-01-10T20:52:28.741Z,10.05
2023-01-10T20:54:56.456Z,9.39
2023-01-10T20:57:24.123Z,9.46
2023-01-10T20:59:51.798Z,11.76
2023-01-10T21:02:19.544Z,13.23
2023-01-10T21:04:49.716Z,12.23
2023-01-10T21:07:18.116Z,10.87
2023-01-10T21:09:45.767Z,9.90
2023-01-10T21:12:22.825Z,9.85
2023-01-10T21:14:52.825Z,12.22
2023-01-10T21:17:20.984Z,13.07
2023-01-10T21:19:48.610Z,11.89
2023-01-10T21:22:16.238Z,10.72
2023-01-10T21:24:44.275Z,9.90
2023-01-10T21:27:11.875Z,9.31
2023-01-10T21:29:39.494Z,9.93
2023-01-10T21:32:09.443Z,12.62
2023-01-10T21:34:37.085Z,13.34
2023-01-10T21:37:04.703Z,11.95
2023-01-10T21:39:32.326Z,10.71
2023-01-10T21:42:18.577Z,9.84
2023-01-10T21:44:46.193Z,9.95
2023-01-10T21:47:13.805Z,12.33
2023-01-10T21:49:41.436Z,13.43
2023-01-10T21:52:09.052Z,12.24
2023-01-10T21:54:37.421Z,10.99
2023-01-10T21:57:05.138Z,10.09
2023-01-10T21:59:34.213Z,9.44
2023-01-10T22:02:01.833Z,9.47
2023-01-10T22:04:29.472Z,11.79
2023-01-10T22:06:57.215Z,13.36
2023-01-10T22:09:25.501Z,12.49
2023-01-10T22:11:53.106Z,11.15
2023-01-10T22:14:20.701Z,10.17
2023-01-10T22:16:48.332Z,9.47
2023-01-10T22:19:16.014Z,9.62
2023-01-10T22:21:43.666Z,12.02
2023-01-10T22:24:12.100Z,13.45
2023-01-10T22:26:39.699Z,12.35
2023-01-10T22:29:07.331Z,11.04
2023-01-10T22:31:35.015Z,10.11
2023-01-10T22:34:02.669Z,9.44
2023-01-10T22:36:30.304Z,9.61
2023-01-10T22:38:57.913Z,11.99
2023-01-10T22:41:26.984Z,13.30
2023-01-10T22:43:54.624Z,12.19
2023-01-10T22:46:22.271Z,10.92
2023-01-10T22:48:49.913Z,10.04
2023-01-10T22:51:17.543Z,9.40
2023-01-10T22:53:45.169Z,9.68
2023-01-10T22:56:12.808Z,12.23
2023-01-10T22:58:42.441Z,13.40
2023-01-10T23:01:10.004Z,12.24
2023-01-10T23:03:37.675Z,11.00
2023-01-10T23:06:05.275Z,10.11
2023-01-10T23:08:32.928Z,9.48
2023-01-10T23:11:00.510Z,9.77
2023-01-10T23:13:28.086Z,12.32
2023-01-10T23:15:56.111Z,13.37
2023-01-10T23:18:23.693Z,12.16
2023-01-10T23:20:51.275Z,10.94
2023-01-10T23:23:18.808Z,10.08
2023-01-10T23:25:46.354Z,9.45
2023-01-10T23:28:13.883Z,9.46
2023-01-10T23:30:41.455Z,11.69
2023-01-10T23:33:09.019Z,13.12
2023-01-10T23:35:36.573Z,12.08
2023-01-10T23:38:04.103Z,10.81
2023-01-10T23:40:31.669Z,9.89
2023-01-10T23:42:59.223Z,9.21
2023-01-10T23:45:26.809Z,9.36
2023-01-10T23:47:54.343Z,11.83
2023-01-10T23:50:23.404Z,12.96
2023-01-10T23:52:50.929Z,11.76
2023-01-10T23:55:18.487Z,10.48
2023-01-10T23:57:46.022Z,9.55
